Time;durP1;ratioP1;P1;durP2;ratioP2;P2;SDS_P1;SDS_P2;PMS_P1;PMS_P2;Temp;Humidity;BMP_temperature;BMP_pressure;BME280_temperature;BME280_humidity;BME280_pressure;Samples;Min_cycle;Max_cycle;Signal;HPM_P1;HPM_P2
2021/01/29 00:00:50;;;;;;;2.17;0.50;;;;;;;-1.83;78.11;97808.16;1714919;83;21220;-57
2021/01/29 00:03:18;;;;;;;0.60;0.40;;;;;;;-1.87;78.09;97806.05;1704485;82;21994;-55
2021/01/29 00:05:52;;;;;;;2.33;0.37;;;;;;;-1.87;78.24;97810.49;1735363;81;21148;-55
2021/01/29 00:08:20;;;;;;;2.40;0.42;;;;;;;-1.87;78.29;97807.38;1734772;81;21401;-55
2021/01/29 00:10:49;;;;;;;0.77;0.40;;;;;;;-1.88;78.36;97804.35;1730956;81;21207;-57
2021/01/29 00:13:16;;;;;;;2.47;0.50;;;;;;;-1.88;78.30;97801.72;1738928;81;21617;-55
2021/01/29 00:15:44;;;;;;;1.43;0.40;;;;;;;-1.88;78.30;97799.08;1727864;81;21261;-57
2021/01/29 00:18:12;;;;;;;0.80;0.40;;;;;;;-1.90;77.98;97791.66;1729678;81;22183;-57
2021/01/29 00:20:40;;;;;;;1.53;0.37;;;;;;;-1.93;78.03;97798.33;1729951;81;21111;-55
2021/01/29 00:23:07;;;;;;;0.80;0.40;;;;;;;-1.95;77.94;97797.05;1731826;81;21110;-55
2021/01/29 00:25:41;;;;;;;1.13;0.40;;;;;;;-1.98;77.95;97787.08;1729313;81;21199;-55
2021/01/29 00:28:08;;;;;;;3.22;0.30;;;;;;;-1.99;77.95;97784.89;1731000;81;21826;-57
2021/01/29 00:30:35;;;;;;;1.47;0.50;;;;;;;-1.99;78.00;97783.57;1730074;81;21211;-56
2021/01/29 00:33:05;;;;;;;0.53;0.37;;;;;;;-1.99;77.81;97782.70;1730115;81;21636;-56
2021/01/29 00:35:33;;;;;;;0.73;0.50;;;;;;;-1.99;77.72;97774.80;1740377;81;21155;-56
2021/01/29 00:38:00;;;;;;;0.60;0.40;;;;;;;-2.00;77.78;97776.56;1732754;81;21100;-55
2021/01/29 00:40:28;;;;;;;0.47;0.30;;;;;;;-2.01;77.81;97774.83;1731385;81;21603;-56
2021/01/29 00:42:56;;;;;;;2.37;0.40;;;;;;;-1.99;77.87;97778.75;1723983;81;21171;-56
2021/01/29 00:45:27;;;;;;;0.63;0.40;;;;;;;-1.97;77.92;97767.70;1734740;81;21119;-55
2021/01/29 00:47:54;;;;;;;0.50;0.37;;;;;;;-1.97;78.04;97771.21;1728567;81;21115;-56
2021/01/29 00:50:22;;;;;;;0.90;0.40;;;;;;;-1.98;77.85;97773.44;1734323;81;21207;-55
2021/01/29 00:52:50;;;;;;;1.90;0.40;;;;;;;-2.01;77.77;97768.70;1738276;81;22258;-55
2021/01/29 00:55:18;;;;;;;2.30;0.50;;;;;;;-2.07;77.81;97771.07;1732655;81;21131;-55
2021/01/29 00:57:47;;;;;;;0.70;0.40;;;;;;;-2.11;77.98;97768.09;1730062;81;21200;-56
2021/01/29 01:00:33;;;;;;;0.57;0.40;;;;;;;-2.11;77.87;97764.59;1722829;81;21228;-56
2021/01/29 01:03:01;;;;;;;2.13;0.40;;;;;;;-2.17;77.84;97767.42;1729480;81;21199;-57
2021/01/29 01:05:29;;;;;;;0.97;0.40;;;;;;;-2.23;77.91;97763.20;1732681;81;23609;-58
2021/01/29 01:07:56;;;;;;;1.10;0.40;;;;;;;-2.25;77.96;97758.42;1733979;81;21486;-56
2021/01/29 01:10:42;;;;;;;0.70;0.40;;;;;;;-2.24;77.98;97755.34;1713830;81;21230;-57
2021/01/29 01:13:28;;;;;;;0.80;0.63;;;;;;;-2.22;77.83;97757.03;1737093;81;21768;-58
2021/01/29 01:16:11;;;;;;;0.87;0.40;;;;;;;-2.18;77.82;97757.78;1872799;75;27643;-59
2021/01/29 01:18:39;;;;;;;0.80;0.50;;;;;;;-2.22;77.85;97752.21;1790210;78;21413;-56
2021/01/29 01:21:16;;;;;;;2.05;0.62;;;;;;;-2.20;77.79;97752.55;1760659;77;27754;-56
2021/01/29 01:23:44;;;;;;;1.03;0.50;;;;;;;-2.21;77.65;97757.41;1750459;79;21571;-55
2021/01/29 01:26:11;;;;;;;1.37;0.50;;;;;;;-2.16;77.45;97758.61;1756650;80;21176;-54
2021/01/29 01:28:56;;;;;;;0.80;0.50;;;;;;;-2.20;77.34;97754.32;1751824;80;21072;-54
2021/01/29 01:31:24;;;;;;;0.90;0.50;;;;;;;-2.22;77.28;97746.48;1754058;80;20992;-56
2021/01/29 01:33:54;;;;;;;3.47;0.50;;;;;;;-2.22;76.97;97745.17;1747360;80;21559;-58
2021/01/29 01:36:34;;;;;;;2.60;0.50;;;;;;;-2.24;76.89;97743.02;1871013;75;27191;-56
2021/01/29 01:39:04;;;;;;;0.70;0.30;;;;;;;-2.29;76.73;97742.27;1782722;78;21838;-55
2021/01/29 01:41:31;;;;;;;0.80;0.37;;;;;;;-2.30;76.45;97744.05;1792964;78;21157;-57
2021/01/29 01:44:06;;;;;;;0.93;0.27;;;;;;;-2.31;76.17;97743.66;1732683;81;21560;-56
2021/01/29 01:46:43;;;;;;;0.30;0.20;;;;;;;-2.32;75.89;97737.98;1808164;76;26876;-55
2021/01/29 01:49:22;;;;;;;0.30;0.20;;;;;;;-2.38;75.58;97744.72;1759175;78;21146;-56
2021/01/29 01:52:12;;;;;;;0.53;0.27;;;;;;;-2.42;75.55;97739.59;1773554;78;22129;-56
2021/01/29 01:54:52;;;;;;;0.43;0.20;;;;;;;-2.40;75.05;97733.84;1819582;76;28015;-57
2021/01/29 01:57:20;;;;;;;0.67;0.20;;;;;;;-2.49;74.65;97738.92;1794702;77;21591;-55
2021/01/29 02:00:02;;;;;;;1.50;0.30;;;;;;;-2.51;74.51;97744.67;1756866;77;21636;-57
2021/01/29 02:02:34;;;;;;;0.60;0.30;;;;;;;-2.56;74.28;97740.45;1789948;77;21015;-57
2021/01/29 02:05:18;;;;;;;0.60;0.30;;;;;;;-2.57;74.14;97731.69;1815442;76;26870;-57
2021/01/29 02:07:52;;;;;;;0.73;0.30;;;;;;;-2.64;73.97;97738.48;1771025;78;21841;-54
2021/01/29 02:10:38;;;;;;;2.10;0.30;;;;;;;-2.71;73.61;97729.87;1799652;78;21439;-57
2021/01/29 02:13:06;;;;;;;1.20;0.30;;;;;;;-2.79;73.71;97726.12;1760702;79;21071;-56
2021/01/29 02:15:38;;;;;;;1.53;0.40;;;;;;;-2.79;73.52;97726.58;1799406;79;21203;-58
2021/01/29 02:18:45;;;;;;;1.03;0.30;;;;;;;-2.81;73.39;97731.05;1803621;77;21056;-57
2021/01/29 02:21:45;;;;;;;1.43;0.30;;;;;;;-2.85;73.29;97725.44;1799251;78;20957;-57
2021/01/29 02:24:38;;;;;;;0.87;0.30;;;;;;;-2.90;73.07;97723.41;1695825;83;21411;-57
2021/01/29 02:27:52;;;;;;;0.50;0.23;;;;;;;-2.93;72.89;97716.44;1861873;74;26682;-58
2021/01/29 02:30:52;;;;;;;1.37;0.30;;;;;;;-3.00;72.76;97722.78;1826182;75;21677;-58
2021/01/29 02:33:53;;;;;;;0.57;0.30;;;;;;;-3.03;72.68;97720.67;1834506;75;22160;-58
2021/01/29 02:36:53;;;;;;;3.07;0.40;;;;;;;-3.07;72.63;97727.80;1832086;75;21498;-58
2021/01/29 02:39:38;;;;;;;0.60;0.30;;;;;;;-3.11;72.59;97728.77;1832565;75;21186;-57
2021/01/29 02:42:22;;;;;;;1.47;0.40;;;;;;;-3.15;72.71;97725.34;1827267;75;21648;-58
2021/01/29 02:45:25;;;;;;;1.63;0.33;;;;;;;-3.15;72.80;97734.55;1821447;77;21179;-58
2021/01/29 02:48:15;;;;;;;1.30;0.30;;;;;;;-3.14;72.79;97728.84;1821590;77;21435;-57
2021/01/29 02:51:26;;;;;;;1.40;0.30;;;;;;;-3.08;72.78;97721.67;1870027;75;26876;-59
2021/01/29 02:54:17;;;;;;;1.43;0.40;;;;;;;-3.10;72.61;97713.39;1858615;76;21118;-58
2021/01/29 02:57:14;;;;;;;4.10;0.37;;;;;;;-3.09;72.47;97708.09;1869542;75;26948;-59
2021/01/29 03:00:17;;;;;;;0.90;0.30;;;;;;;-3.11;72.34;97697.19;1872225;75;27883;-59
2021/01/29 03:03:10;;;;;;;1.00;0.40;;;;;;;-3.19;72.30;97705.28;1781632;78;21617;-59
2021/01/29 03:05:56;;;;;;;1.57;0.40;;;;;;;-3.22;72.29;97707.13;1812543;78;21282;-59
2021/01/29 03:08:34;;;;;;;1.20;0.50;;;;;;;-3.27;72.20;97703.31;1778524;80;21354;-59
2021/01/29 03:11:49;;;;;;;1.83;0.60;;;;;;;-3.29;72.16;97706.87;1782527;79;20988;-59
2021/01/29 03:14:50;;;;;;;1.40;0.60;;;;;;;-3.33;72.11;97702.16;1813352;78;21435;-59
2021/01/29 03:17:39;;;;;;;3.13;0.90;;;;;;;-3.36;72.10;97696.10;1777351;79;20957;-59
2021/01/29 03:20:38;;;;;;;2.07;1.50;;;;;;;-3.41;72.05;97691.42;1777286;80;21561;-59
2021/01/29 03:23:41;;;;;;;2.27;0.90;;;;;;;-3.44;71.98;97691.04;1780311;79;21512;-59
2021/01/29 03:26:40;;;;;;;1.67;0.80;;;;;;;-3.50;72.01;97697.33;1815265;78;20968;-58
2021/01/29 03:29:31;;;;;;;2.63;0.70;;;;;;;-3.54;71.96;97682.52;1815026;78;21108;-59
2021/01/29 03:32:17;;;;;;;1.50;0.60;;;;;;;-3.57;72.13;97688.28;1786498;79;21479;-58
2021/01/29 03:35:29;;;;;;;2.50;0.70;;;;;;;-3.60;72.16;97693.20;1784495;79;21428;-59
2021/01/29 03:38:31;;;;;;;1.37;0.70;;;;;;;-3.62;72.26;97692.81;1784332;79;21406;-58
2021/01/29 03:41:32;;;;;;;2.77;0.60;;;;;;;-3.64;72.23;97695.47;1783962;79;21489;-57
2021/01/29 03:44:31;;;;;;;1.17;0.40;;;;;;;-3.64;72.31;97689.34;1780528;79;21223;-58
2021/01/29 03:47:34;;;;;;;1.90;0.50;;;;;;;-3.64;72.32;97687.58;1784098;79;21574;-58
2021/01/29 03:50:41;;;;;;;1.20;0.50;;;;;;;-3.66;72.35;97676.27;1781260;79;21403;-58
2021/01/29 03:53:52;;;;;;;0.70;0.40;;;;;;;-3.68;72.29;97674.56;1784568;79;21624;-58
2021/01/29 03:56:56;;;;;;;1.53;0.50;;;;;;;-3.71;72.31;97679.89;1719701;81;21453;-58
2021/01/29 04:00:12;;;;;;;0.93;0.30;;;;;;;-3.75;72.27;97679.56;1748871;80;21793;-58
2021/01/29 04:03:11;;;;;;;1.30;0.50;;;;;;;-3.79;72.37;97687.97;1753764;79;21141;-57
2021/01/29 04:06:06;;;;;;;0.70;0.30;;;;;;;-3.83;72.40;97684.53;1724367;81;21386;-57
2021/01/29 04:09:11;;;;;;;0.80;0.47;;;;;;;-3.86;72.41;97695.14;1745485;80;21503;-58
2021/01/29 04:12:00;;;;;;;1.23;0.53;;;;;;;-3.87;72.41;97689.47;1867318;75;26455;-59
2021/01/29 04:14:43;;;;;;;1.90;0.50;;;;;;;-3.92;72.37;97687.41;1841401;77;21162;-58
2021/01/29 04:17:21;;;;;;;1.00;0.50;;;;;;;-3.96;72.45;97677.86;1846791;77;22215;-58
2021/01/29 04:19:51;;;;;;;1.37;0.50;;;;;;;-3.99;72.47;97680.55;1850577;77;21889;-58
2021/01/29 04:22:21;;;;;;;1.30;0.60;;;;;;;-4.00;72.37;97677.53;1849930;77;21329;-59
2021/01/29 04:25:00;;;;;;;1.47;0.60;;;;;;;-4.02;72.39;97680.64;1851384;77;21519;-59
2021/01/29 04:27:30;;;;;;;2.70;0.70;;;;;;;-4.04;72.30;97681.11;1848421;77;21024;-59
2021/01/29 04:30:11;;;;;;;1.97;0.60;;;;;;;-4.07;72.28;97684.25;1847312;77;21243;-58
2021/01/29 04:32:42;;;;;;;3.33;0.80;;;;;;;-4.07;72.20;97682.94;1819002;77;21696;-59
2021/01/29 04:35:11;;;;;;;1.10;0.80;;;;;;;-4.09;72.13;97683.45;1848186;76;21202;-59
2021/01/29 04:37:43;;;;;;;1.80;0.80;;;;;;;-4.13;72.13;97683.95;1847849;77;21155;-59
2021/01/29 04:40:30;;;;;;;2.63;1.53;;;;;;;-4.17;72.19;97681.00;1851662;77;21633;-59
2021/01/29 04:43:20;;;;;;;2.30;0.90;;;;;;;-4.18;72.24;97675.33;1827496;76;22474;-59
2021/01/29 04:46:01;;;;;;;3.20;1.67;;;;;;;-4.21;72.31;97660.48;1844175;77;21426;-59
2021/01/29 04:48:46;;;;;;;5.57;2.17;;;;;;;-4.21;72.42;97656.55;1845316;76;21699;-58
2021/01/29 04:51:37;;;;;;;2.47;0.85;;;;;;;-4.23;72.44;97670.16;1845060;76;21187;-58
2021/01/29 04:54:39;;;;;;;3.30;1.33;;;;;;;-4.26;72.44;97670.70;1840478;76;22170;-59
2021/01/29 04:57:35;;;;;;;3.37;1.33;;;;;;;-4.30;72.56;97645.38;1842327;77;21236;-58
2021/01/29 05:00:30;;;;;;;4.77;2.23;;;;;;;-4.29;72.61;97645.80;1811661;77;21201;-58
2021/01/29 05:03:39;;;;;;;4.40;1.47;;;;;;;-4.28;72.59;97650.16;1844928;76;21158;-58
2021/01/29 05:06:52;;;;;;;3.27;1.40;;;;;;;-4.28;72.61;97647.53;1848499;76;21151;-58
2021/01/29 05:10:12;;;;;;;4.47;2.60;;;;;;;-4.27;72.62;97647.50;1822246;76;21162;-58
2021/01/29 05:12:55;;;;;;;4.53;2.33;;;;;;;-4.24;72.60;97647.41;1840680;76;23662;-57
2021/01/29 05:16:00;;;;;;;5.63;2.63;;;;;;;-4.18;72.59;97645.11;1841593;76;21242;-58
2021/01/29 05:18:44;;;;;;;7.07;2.83;;;;;;;-4.13;72.59;97648.48;1844829;76;21154;-59
2021/01/29 05:21:26;;;;;;;5.03;2.05;;;;;;;-4.09;72.55;97655.86;1846261;76;21193;-59
2021/01/29 05:24:13;;;;;;;3.70;1.20;;;;;;;-4.02;72.53;97643.84;1822950;76;25234;-59
2021/01/29 05:26:57;;;;;;;4.80;2.43;;;;;;;-4.03;72.53;97646.50;1792676;79;21020;-58
2021/01/29 05:29:48;;;;;;;5.50;2.90;;;;;;;-3.99;72.48;97652.08;1795856;79;21251;-58
2021/01/29 05:32:55;;;;;;;5.10;2.73;;;;;;;-3.96;72.34;97652.89;1790222;79;21186;-59
2021/01/29 05:35:43;;;;;;;4.57;2.57;;;;;;;-3.93;72.36;97644.08;1788911;79;21198;-59
2021/01/29 05:39:03;;;;;;;5.67;2.60;;;;;;;-3.92;72.23;97642.73;1791364;77;21482;-58
2021/01/29 05:41:48;;;;;;;7.53;2.67;;;;;;;-3.89;72.11;97645.27;1783038;79;21178;-58
2021/01/29 05:44:31;;;;;;;;;;;;;;;-3.88;71.98;97640.42;1756919;80;22249;-59
2021/01/29 05:47:36;;;;;;;3.10;1.40;;;;;;;-3.90;71.91;97643.53;1764862;80;20687;-58
2021/01/29 05:50:27;;;;;;;7.53;2.37;;;;;;;-3.93;71.95;97642.31;1766689;79;20997;-59
2021/01/29 05:53:07;;;;;;;4.17;1.53;;;;;;;-3.94;71.98;97643.66;1765845;80;21517;-58
2021/01/29 05:56:11;;;;;;;5.03;3.00;;;;;;;-3.94;72.11;97641.90;1764760;80;21099;-57
2021/01/29 05:58:44;;;;;;;5.90;3.47;;;;;;;-3.95;72.16;97627.47;1765118;79;21533;-58
2021/01/29 06:01:48;;;;;;;8.63;3.50;;;;;;;-3.91;72.32;97629.97;1739130;80;20985;-57
2021/01/29 06:04:30;;;;;;;10.80;3.97;;;;;;;-3.88;72.30;97633.85;1765740;79;21123;-58
2021/01/29 06:07:32;;;;;;;7.10;4.33;;;;;;;-3.84;72.35;97626.32;1742895;79;21099;-59
2021/01/29 06:10:37;;;;;;;7.47;3.23;;;;;;;-3.82;72.55;97621.86;1770975;79;21106;-58
2021/01/29 06:13:22;;;;;;;13.20;7.07;;;;;;;-3.82;72.85;97598.66;1767854;80;21205;-58
2021/01/29 06:16:02;;;;;;;;;;;;;;;-3.83;73.08;97596.95;1744691;80;21095;-58
2021/01/29 06:19:10;;;;;;;14.20;5.03;;;;;;;-3.85;73.40;97599.62;1767467;80;20528;-57
2021/01/29 06:22:03;;;;;;;10.10;3.97;;;;;;;-3.88;73.54;97606.25;1757843;80;21210;-57
2021/01/29 06:24:49;;;;;;;5.47;3.60;;;;;;;-3.89;73.99;97618.11;1766053;79;21103;-57
2021/01/29 06:27:39;;;;;;;6.73;4.10;;;;;;;-3.92;74.23;97619.08;1768216;80;21504;-57
2021/01/29 06:30:36;;;;;;;7.33;3.47;;;;;;;-3.92;74.60;97623.02;1768930;79;21142;-57
2021/01/29 06:33:43;;;;;;;8.07;4.37;;;;;;;-3.90;74.90;97613.75;1766704;80;21815;-58
2021/01/29 06:36:28;;;;;;;5.13;3.30;;;;;;;-3.92;75.12;97616.45;1766318;80;21967;-59
2021/01/29 06:39:12;;;;;;;;;;;;;;;-3.90;75.40;97620.33;1764708;80;21595;-58
2021/01/29 06:41:57;;;;;;;8.00;4.17;;;;;;;-3.87;75.59;97632.09;1764440;80;21566;-58
2021/01/29 06:44:50;;;;;;;4.30;2.58;;;;;;;-3.86;75.74;97620.23;1760941;80;21186;-57
2021/01/29 06:47:43;;;;;;;7.33;2.70;;;;;;;-3.81;75.88;97613.08;1767990;80;21154;-57
2021/01/29 06:50:56;;;;;;;7.10;4.47;;;;;;;-3.77;75.88;97609.06;1762859;80;21847;-57
2021/01/29 06:57:46;;;;;;;4.07;3.67;;;;;;;-3.73;76.01;97598.87;1791057;77;25242;-58
2021/01/29 07:00:40;;;;;;;8.47;4.73;;;;;;;-3.76;76.06;97602.91;1763427;78;21195;-59
2021/01/29 07:03:37;;;;;;;6.27;3.90;;;;;;;-3.74;76.25;97599.80;1760525;78;21730;-57
2021/01/29 07:06:22;;;;;;;8.23;5.40;;;;;;;-3.73;76.36;97592.30;1761102;78;21198;-58
2021/01/29 07:09:07;;;;;;;6.28;4.67;;;;;;;-3.70;76.45;97593.09;1760947;78;21194;-58
2021/01/29 07:11:56;;;;;;;5.40;2.73;;;;;;;-3.67;76.55;97583.82;1763653;78;21179;-58
2021/01/29 07:15:04;;;;;;;7.17;3.77;;;;;;;-3.61;76.63;97587.59;1711984;81;21859;-59
2021/01/29 07:17:51;;;;;;;10.23;5.13;;;;;;;-3.55;76.66;97582.16;1704548;81;22194;-56
2021/01/29 07:20:48;;;;;;;7.77;4.53;;;;;;;-3.49;76.68;97585.94;1701456;81;21292;-58
2021/01/29 07:23:46;;;;;;;8.07;5.37;;;;;;;-3.44;76.80;97576.63;1717452;81;21217;-57
2021/01/29 07:26:32;;;;;;;9.53;5.30;;;;;;;-3.38;76.85;97580.39;1643619;85;21159;-58
2021/01/29 07:29:20;;;;;;;6.77;3.73;;;;;;;-3.28;76.84;97575.30;1866747;75;25811;-56
2021/01/29 07:32:20;;;;;;;8.23;4.40;;;;;;;-3.28;76.89;97581.88;1786164;78;21174;-57
2021/01/29 07:34:57;;;;;;;8.60;5.53;;;;;;;-3.23;76.91;97578.64;1812066;78;21055;-58
2021/01/29 07:38:03;;;;;;;8.30;4.80;;;;;;;-3.19;76.95;97573.72;1768175;80;21212;-58
2021/01/29 07:40:57;;;;;;;;;;;;;;;-3.16;76.98;97571.47;1781368;80;21165;-59
2021/01/29 07:43:58;;;;;;;8.80;5.47;;;;;;;-3.13;77.19;97564.33;1759446;80;20171;-58
2021/01/29 07:46:47;;;;;;;10.17;5.37;;;;;;;-3.11;77.33;97562.52;1738751;80;21499;-59
2021/01/29 07:50:00;;;;;;;8.10;4.93;;;;;;;-3.07;77.57;97562.86;1767178;80;22898;-58
2021/01/29 07:52:51;;;;;;;9.47;4.80;;;;;;;-3.02;77.72;97561.39;1745898;80;21072;-58
2021/01/29 07:55:27;;;;;;;12.27;6.27;;;;;;;-2.98;77.93;97561.73;1750888;80;21080;-58
2021/01/29 07:58:22;;;;;;;14.77;8.13;;;;;;;-2.93;78.06;97561.58;1751335;80;21182;-58
2021/01/29 08:01:11;;;;;;;13.90;6.70;;;;;;;-2.90;78.13;97566.77;1742730;80;21501;-58
2021/01/29 08:04:12;;;;;;;7.53;5.40;;;;;;;-2.87;78.33;97562.25;1750253;80;22274;-58
2021/01/29 08:07:14;;;;;;;12.83;6.63;;;;;;;-2.82;78.38;97560.81;1751181;80;21201;-59
2021/01/29 08:09:42;;;;;;;10.67;7.07;;;;;;;-2.76;78.63;97556.67;1753576;80;20967;-58
2021/01/29 08:12:12;;;;;;;16.03;8.17;;;;;;;-2.67;78.67;97547.18;1750292;80;21181;-57
2021/01/29 08:15:06;;;;;;;13.17;7.67;;;;;;;-2.61;78.73;97547.44;1747980;80;21242;-58
2021/01/29 08:17:56;;;;;;;14.80;9.20;;;;;;;-2.53;78.72;97549.38;1750855;80;21469;-58
2021/01/29 08:21:03;;;;;;;22.10;13.90;;;;;;;-2.47;78.68;97549.20;1749678;80;21629;-58
2021/01/29 08:24:00;;;;;;;14.57;8.30;;;;;;;-2.42;78.75;97546.82;1750009;80;21200;-59
2021/01/29 08:27:01;;;;;;;24.30;14.40;;;;;;;-2.36;78.80;97542.66;1749954;80;21209;-58
2021/01/29 08:29:54;;;;;;;18.70;11.53;;;;;;;-2.32;78.93;97545.63;1753756;80;21389;-58
2021/01/29 08:33:22;;;;;;;33.17;15.93;;;;;;;-2.21;79.02;97532.56;1827867;76;27762;-58
2021/01/29 08:36:32;;;;;;;15.47;9.87;;;;;;;-2.23;79.11;97535.24;1794924;78;21516;-58
2021/01/29 08:39:10;;;;;;;16.87;9.03;;;;;;;-2.18;79.20;97541.20;1793097;79;21527;-59
2021/01/29 08:42:04;;;;;;;15.73;8.13;;;;;;;-2.11;79.21;97545.36;1777574;79;21206;-59
2021/01/29 08:45:04;;;;;;;31.27;14.90;;;;;;;-2.06;79.17;97542.59;1740878;80;21490;-59
2021/01/29 08:47:57;;;;;;;49.67;22.17;;;;;;;-2.02;79.27;97543.74;1743652;80;21183;-59
2021/01/29 08:50:46;;;;;;;16.17;11.67;;;;;;;-1.95;79.21;97541.76;1742889;80;23853;-59
2021/01/29 08:53:47;;;;;;;14.70;10.07;;;;;;;-1.92;79.28;97541.20;1742486;80;21091;-59
2021/01/29 08:56:56;;;;;;;14.20;10.07;;;;;;;-1.87;79.27;97539.72;1740686;80;21186;-58
2021/01/29 08:59:34;;;;;;;11.77;7.67;;;;;;;-1.86;79.21;97534.86;1745717;80;21001;-58
2021/01/29 09:02:12;;;;;;;10.40;6.53;;;;;;;-1.86;79.25;97534.86;1744247;80;21103;-59
2021/01/29 09:04:54;;;;;;;11.57;8.07;;;;;;;-1.84;79.37;97536.99;1744445;80;20984;-59
2021/01/29 09:07:28;;;;;;;16.33;12.37;;;;;;;-1.81;79.42;97534.27;1743200;80;22139;-59
2021/01/29 09:10:19;;;;;;;14.40;11.70;;;;;;;-1.78;79.46;97521.41;1745132;80;21139;-59
2021/01/29 09:12:46;;;;;;;11.70;7.40;;;;;;;-1.76;79.66;97521.77;1744508;80;21130;-59
2021/01/29 09:15:22;;;;;;;9.37;6.33;;;;;;;-1.73;79.81;97521.67;1694481;80;21107;-58
2021/01/29 09:18:00;;;;;;;8.73;6.57;;;;;;;-1.67;79.88;97532.00;1745089;80;21119;-59
2021/01/29 09:20:31;;;;;;;11.40;6.57;;;;;;;-1.63;79.90;97538.91;1741951;80;21306;-59
2021/01/29 09:23:03;;;;;;;9.53;6.20;;;;;;;-1.58;79.79;97531.67;1742994;80;21534;-59
2021/01/29 09:25:40;;;;;;;9.93;6.63;;;;;;;-1.56;79.69;97527.22;1746488;80;21155;-58
2021/01/29 09:28:13;;;;;;;12.35;5.85;;;;;;;-1.51;79.70;97536.27;1748446;79;21961;-59
2021/01/29 09:30:53;;;;;;;10.63;7.33;;;;;;;-1.45;79.70;97538.72;1745543;80;21505;-59
2021/01/29 09:33:36;;;;;;;10.83;5.87;;;;;;;-1.42;79.70;97522.75;1735540;80;22337;-55
2021/01/29 09:36:23;;;;;;;7.53;5.57;;;;;;;-1.36;79.55;97537.04;1757755;80;21118;-56
2021/01/29 09:38:57;;;;;;;8.57;4.67;;;;;;;-1.34;79.51;97536.98;1758974;80;21679;-57
2021/01/29 09:41:35;;;;;;;6.28;4.78;;;;;;;-1.33;79.49;97536.08;1760610;80;21603;-55
2021/01/29 09:44:21;;;;;;;4.77;3.90;;;;;;;-1.27;79.55;97543.77;1759094;80;21202;-58
2021/01/29 09:46:58;;;;;;;9.35;6.65;;;;;;;-1.19;79.53;97533.33;1754609;80;21805;-57
2021/01/29 09:49:31;;;;;;;7.93;7.13;;;;;;;-1.08;79.42;97542.19;1759127;80;20976;-56
2021/01/29 09:52:15;;;;;;;8.70;5.43;;;;;;;-1.03;79.42;97532.79;1754774;80;21000;-57
2021/01/29 09:55:12;;;;;;;8.67;6.50;;;;;;;-0.95;79.28;97529.40;1758631;80;21084;-55
2021/01/29 09:57:56;;;;;;;5.00;3.93;;;;;;;-0.87;79.14;97531.29;1761826;80;21612;-55
2021/01/29 10:00:30;;;;;;;8.08;6.28;;;;;;;-0.84;78.96;97521.45;1747625;80;21213;-58
2021/01/29 10:03:22;;;;;;;8.20;4.72;;;;;;;-0.78;78.87;97518.59;1757903;80;21223;-57
2021/01/29 10:05:52;;;;;;;6.17;4.93;;;;;;;-0.74;78.68;97515.36;1760242;80;21118;-57
2021/01/29 10:08:39;;;;;;;6.73;5.70;;;;;;;-0.63;78.53;97516.27;1755556;80;21593;-59
2021/01/29 10:11:26;;;;;;;7.80;4.93;;;;;;;-0.54;78.41;97518.09;1756138;80;21111;-59
2021/01/29 10:14:19;;;;;;;5.90;4.83;;;;;;;-0.44;78.25;97519.45;1745167;80;21398;-58
2021/01/29 10:17:00;;;;;;;9.17;6.03;;;;;;;-0.32;78.03;97506.65;1758664;80;21170;-58
2021/01/29 10:19:32;;;;;;;6.77;4.93;;;;;;;-0.21;77.74;97500.02;1759054;80;21225;-59
2021/01/29 10:22:38;;;;;;;8.57;6.67;;;;;;;-0.14;77.31;97489.58;1755777;80;21778;-58
2021/01/29 10:25:35;;;;;;;10.83;6.50;;;;;;;-0.03;77.17;97488.68;1756479;80;21210;-59
2021/01/29 10:28:48;;;;;;;6.67;5.07;;;;;;;0.12;76.81;97488.48;1749541;80;21762;-60
2021/01/29 10:31:17;;;;;;;10.63;8.70;;;;;;;0.19;76.69;97484.65;1758214;80;21107;-58
2021/01/29 10:33:47;;;;;;;11.20;6.83;;;;;;;0.34;76.21;97480.50;1758166;80;21090;-58
2021/01/29 10:36:30;;;;;;;9.30;5.30;;;;;;;0.38;75.87;97468.84;1741337;80;21158;-59
2021/01/29 10:39:04;;;;;;;8.30;5.80;;;;;;;0.43;75.20;97469.48;1734600;80;21213;-59
2021/01/29 10:41:48;;;;;;;10.82;5.62;;;;;;;0.42;75.07;97481.03;1738139;80;22562;-59
2021/01/29 10:44:28;;;;;;;8.50;4.95;;;;;;;0.43;74.30;97475.23;1736118;80;21258;-59
2021/01/29 10:47:20;;;;;;;9.17;5.00;;;;;;;0.39;74.02;97471.89;1736984;80;21664;-60
2021/01/29 10:50:14;;;;;;;13.77;8.40;;;;;;;0.36;73.73;97477.30;1739143;80;21534;-59
2021/01/29 10:53:18;;;;;;;11.67;7.70;;;;;;;0.36;73.42;97472.88;1737932;80;21092;-61
2021/01/29 10:56:01;;;;;;;15.73;8.13;;;;;;;0.45;73.53;97468.10;1736246;80;22803;-59
2021/01/29 10:58:59;;;;;;;11.70;7.20;;;;;;;0.55;73.61;97468.95;1736581;80;21171;-60
2021/01/29 11:01:38;;;;;;;10.70;5.70;;;;;;;0.66;73.63;97468.48;1738089;80;21187;-59
2021/01/29 11:04:10;;;;;;;9.47;6.23;;;;;;;0.78;73.12;97477.64;1737418;80;21239;-60
2021/01/29 11:06:43;;;;;;;8.77;6.00;;;;;;;0.80;72.51;97477.98;1736757;80;21182;-59
2021/01/29 11:09:20;;;;;;;7.30;5.37;;;;;;;0.84;71.66;97482.69;1737021;80;21861;-59
2021/01/29 11:12:18;;;;;;;7.00;4.43;;;;;;;0.74;69.17;97483.10;1736657;80;21202;-58
2021/01/29 11:15:02;;;;;;;6.53;4.17;;;;;;;0.59;68.66;97480.28;1719239;83;21122;-59
2021/01/29 11:17:53;;;;;;;8.67;4.30;;;;;;;0.48;68.10;97470.16;1680320;83;21146;-59
2021/01/29 11:20:33;;;;;;;7.63;3.30;;;;;;;0.45;67.13;97478.23;1724904;80;21190;-61
2021/01/29 11:23:09;;;;;;;8.40;4.50;;;;;;;0.42;66.21;97479.70;1740453;80;21375;-59
2021/01/29 11:26:00;;;;;;;5.17;2.90;;;;;;;0.40;66.38;97479.37;1732403;80;21206;-59
2021/01/29 11:29:00;;;;;;;9.87;4.97;;;;;;;0.37;65.70;97467.98;1736446;80;21263;-60
2021/01/29 11:31:45;;;;;;;7.43;3.77;;;;;;;0.38;65.60;97467.52;1742764;80;21211;-59
2021/01/29 11:34:31;;;;;;;9.03;4.07;;;;;;;0.41;65.52;97466.53;1739685;80;21087;-59
2021/01/29 11:37:16;;;;;;;9.08;4.00;;;;;;;0.43;65.09;97467.30;1733169;80;21234;-59
2021/01/29 11:40:03;;;;;;;9.90;5.97;;;;;;;0.43;65.09;97467.30;1735135;80;21637;-60
2021/01/29 11:42:45;;;;;;;6.23;4.17;;;;;;;0.40;64.61;97473.61;1739054;80;21131;-59
2021/01/29 11:45:26;;;;;;;7.30;4.40;;;;;;;0.36;64.31;97472.88;1739562;80;21470;-59
2021/01/29 11:48:12;;;;;;;7.53;4.07;;;;;;;0.35;64.53;97486.16;1737941;80;21511;-59
2021/01/29 11:50:59;;;;;;;7.17;4.03;;;;;;;0.36;64.28;97487.42;1722806;80;21684;-59
2021/01/29 11:53:46;;;;;;;5.90;4.20;;;;;;;0.37;63.36;97489.61;1705882;80;21155;-58
2021/01/29 11:56:31;;;;;;;6.07;4.53;;;;;;;0.33;63.26;97491.55;1734243;80;21116;-60
2021/01/29 11:59:35;;;;;;;8.10;4.03;;;;;;;0.32;63.22;97499.55;1740370;80;21843;-60
2021/01/29 12:02:31;;;;;;;7.17;3.40;;;;;;;0.34;63.12;97498.53;1738203;80;21143;-59
2021/01/29 12:05:05;;;;;;;10.00;4.83;;;;;;;0.33;62.50;97499.48;1732927;80;22278;-58
2021/01/29 12:07:40;;;;;;;7.90;4.20;;;;;;;0.30;62.19;97497.42;1735002;80;21115;-58
2021/01/29 12:10:34;;;;;;;7.20;3.83;;;;;;;0.31;62.52;97501.80;1739141;80;21184;-58
2021/01/29 12:13:23;;;;;;;6.43;3.90;;;;;;;0.30;62.23;97497.42;1742402;80;21139;-58
2021/01/29 12:15:56;;;;;;;7.00;4.00;;;;;;;0.28;61.70;97499.27;1739120;80;21608;-59
2021/01/29 12:18:24;;;;;;;10.37;5.03;;;;;;;0.28;61.01;97502.77;1714426;80;22122;-61
2021/01/29 12:20:52;;;;;;;8.63;4.73;;;;;;;0.27;61.27;97500.19;1735724;80;21463;-59
2021/01/29 12:23:31;;;;;;;7.50;4.53;;;;;;;0.28;61.52;97497.48;1696342;80;21532;-60
2021/01/29 12:26:09;;;;;;;6.90;4.20;;;;;;;0.31;61.33;97496.05;1740816;80;21442;-59
2021/01/29 12:28:59;;;;;;;7.10;3.83;;;;;;;0.31;60.89;97501.33;1742610;80;20993;-60
2021/01/29 12:32:00;;;;;;;7.80;4.73;;;;;;;0.31;61.08;97489.89;1735283;80;21211;-59
2021/01/29 12:34:41;;;;;;;10.63;5.60;;;;;;;0.30;60.83;97490.34;1738055;80;21498;-60
2021/01/29 12:37:24;;;;;;;6.93;4.27;;;;;;;0.34;60.92;97487.95;1869743;75;26886;-59
2021/01/29 12:40:13;;;;;;;7.90;4.87;;;;;;;0.31;61.10;97492.07;1807239;77;21314;-59
2021/01/29 12:42:52;;;;;;;7.53;4.50;;;;;;;0.29;61.02;97492.59;1840581;77;21332;-59
2021/01/29 12:45:39;;;;;;;7.97;4.30;;;;;;;0.29;61.27;97492.59;1782018;78;21219;-59
2021/01/29 12:48:27;;;;;;;9.80;5.73;;;;;;;0.30;61.12;97499.61;1739819;78;21196;-59
2021/01/29 12:51:16;;;;;;;12.57;5.90;;;;;;;0.31;61.06;97499.15;1803612;78;21079;-60
2021/01/29 12:54:13;;;;;;;11.33;6.07;;;;;;;0.30;61.06;97496.10;1787244;78;20968;-57
2021/01/29 12:56:51;;;;;;;10.07;5.07;;;;;;;0.30;60.95;97486.84;1804508;78;21525;-58
2021/01/29 12:59:33;;;;;;;8.37;5.00;;;;;;;0.30;60.97;97494.31;1804956;78;21186;-58
2021/01/29 13:02:31;;;;;;;10.57;5.07;;;;;;;0.28;61.27;97500.59;1800381;78;21204;-58
2021/01/29 13:05:23;;;;;;;12.63;5.00;;;;;;;0.27;61.07;97506.34;1777614;78;21462;-59
2021/01/29 13:08:02;;;;;;;15.70;6.33;;;;;;;0.25;61.17;97506.03;1771286;79;21190;-59